Chicago Rockford International Airport

Airport
ICAO code: 
KRFD
Summary
ICAO Region: 
NAM
Territory: 
Location: 
Rockford, Illinois,
Coordinates: 
Aerial View: 
42° 11' 47.754" N, 89° 6' 3.598" W
Airport CFIT: 
Altimeter Temperature Error Correction
Metar
Observation
KRFD 040754Z 34005KT 5SM BR OVC003 01/00 A3021 RMK AO2 SLP235 T00110000
Station
Rockford, Greater Rockford Airport
Date/Time
2021-12-04 07:54:00
Wind direction
340°
Wind speed
05 kts
Lowest cloud amount
overcast
Temperature
1.1°C
Dew point
0°C
Humidity
92%
Weather condition
mist

Description

Chicago Rockford International Airport is a general aviation and commercial airport in Winnebago County, Illinois. It is located 6 km south of Rockford and 109 km northwest of Chicago.

Climatology

Humid continental climate (Köppen climate classification Dfa) - characterized by four seasons: cold, windy, snowy winters, mild springs, hot, humid summers, and crisp and relatively short autumns. Precipitation reaches its lowest in January and February and peaks in summer and latter half of spring.

Runways

Designator Length Width Surface Rops
1/19 2499 46 ASP Yes/Yes
7/25 3049 46 PEM Yes/Yes
Airport map: 
Aerial View: 

SKYbrary Partners:

Safety knowledge contributed by: